sensor_id;sensor_type;location;lat;lon;timestamp;temperature;humidity
44117;DHT22;29781;49.480;8.512;2022-08-04T00:02:24;26.80;91.00
44117;DHT22;29781;49.480;8.512;2022-08-04T00:05:02;26.10;92.40
44117;DHT22;29781;49.480;8.512;2022-08-04T00:07:39;25.50;93.60
44117;DHT22;29781;49.480;8.512;2022-08-04T00:10:06;25.30;94.40
44117;DHT22;29781;49.480;8.512;2022-08-04T00:12:37;25.00;95.70
44117;DHT22;29781;49.480;8.512;2022-08-04T00:15:09;25.00;96.30
44117;DHT22;29781;49.480;8.512;2022-08-04T00:17:39;25.10;95.70
44117;DHT22;29781;49.480;8.512;2022-08-04T00:20:05;25.30;95.70
44117;DHT22;29781;49.480;8.512;2022-08-04T00:22:34;25.60;95.00
44117;DHT22;29781;49.480;8.512;2022-08-04T00:25:01;25.80;94.50
44117;DHT22;29781;49.480;8.512;2022-08-04T00:27:29;25.90;94.50
44117;DHT22;29781;49.480;8.512;2022-08-04T00:29:56;25.60;95.80
44117;DHT22;29781;49.480;8.512;2022-08-04T00:32:21;25.70;95.30
44117;DHT22;29781;49.480;8.512;2022-08-04T00:34:47;25.90;95.00
44117;DHT22;29781;49.480;8.512;2022-08-04T00:37:14;26.20;94.60
44117;DHT22;29781;49.480;8.512;2022-08-04T00:39:41;26.10;94.70
44117;DHT22;29781;49.480;8.512;2022-08-04T00:47:57;25.70;95.80
44117;DHT22;29781;49.480;8.512;2022-08-04T00:53:23;25.90;96.10
44117;DHT22;29781;49.480;8.512;2022-08-04T00:58:46;26.00;95.90
44117;DHT22;29781;49.480;8.512;2022-08-04T01:04:35;24.90;99.90
44117;DHT22;29781;49.480;8.512;2022-08-04T01:07:48;24.80;99.90
44117;DHT22;29781;49.480;8.512;2022-08-04T01:15:17;25.70;99.90
44117;DHT22;29781;49.480;8.512;2022-08-04T01:18:03;25.90;99.20
44117;DHT22;29781;49.480;8.512;2022-08-04T01:21:01;25.90;99.40
44117;DHT22;29781;49.480;8.512;2022-08-04T01:26:32;26.30;98.20
44117;DHT22;29781;49.480;8.512;2022-08-04T01:29:13;26.30;98.40
44117;DHT22;29781;49.480;8.512;2022-08-04T01:34:22;26.20;98.20
44117;DHT22;29781;49.480;8.512;2022-08-04T01:37:03;26.00;98.20
44117;DHT22;29781;49.480;8.512;2022-08-04T01:39:34;25.80;98.80
44117;DHT22;29781;49.480;8.512;2022-08-04T01:42:10;25.60;99.10
44117;DHT22;29781;49.480;8.512;2022-08-04T01:44:38;25.50;99.20
44117;DHT22;29781;49.480;8.512;2022-08-04T01:47:04;25.50;99.00
44117;DHT22;29781;49.480;8.512;2022-08-04T01:49:32;25.50;98.70
44117;DHT22;29781;49.480;8.512;2022-08-04T01:51:58;25.50;99.20
44117;DHT22;29781;49.480;8.512;2022-08-04T01:54:25;25.50;99.30
44117;DHT22;29781;49.480;8.512;2022-08-04T01:56:53;25.40;99.20
44117;DHT22;29781;49.480;8.512;2022-08-04T01:59:20;25.60;99.00
44117;DHT22;29781;49.480;8.512;2022-08-04T02:01:46;25.50;99.10
44117;DHT22;29781;49.480;8.512;2022-08-04T02:04:19;25.70;98.70
44117;DHT22;29781;49.480;8.512;2022-08-04T02:07:16;25.80;98.10
44117;DHT22;29781;49.480;8.512;2022-08-04T02:23:03;25.00;99.90
44117;DHT22;29781;49.480;8.512;2022-08-04T02:25:36;25.00;99.90
44117;DHT22;29781;49.480;8.512;2022-08-04T02:30:46;25.30;99.90
44117;DHT22;29781;49.480;8.512;2022-08-04T02:33:32;25.30;99.90
44117;DHT22;29781;49.480;8.512;2022-08-04T02:36:02;24.70;99.90
44117;DHT22;29781;49.480;8.512;2022-08-04T02:39:00;24.20;99.90
44117;DHT22;29781;49.480;8.512;2022-08-04T02:41:28;23.90;99.90
44117;DHT22;29781;49.480;8.512;2022-08-04T02:43:59;23.60;99.90
44117;DHT22;29781;49.480;8.512;2022-08-04T02:46:26;23.40;99.90
44117;DHT22;29781;49.480;8.512;2022-08-04T02:48:53;23.60;99.90
44117;DHT22;29781;49.480;8.512;2022-08-04T02:51:26;23.90;99.90
44117;DHT22;29781;49.480;8.512;2022-08-04T02:53:54;24.20;99.90
44117;DHT22;29781;49.480;8.512;2022-08-04T02:56:21;24.30;99.90
44117;DHT22;29781;49.480;8.512;2022-08-04T02:58:51;24.40;99.90
44117;DHT22;29781;49.480;8.512;2022-08-04T03:01:17;24.40;99.90
44117;DHT22;29781;49.480;8.512;2022-08-04T03:10:00;24.50;99.90
44117;DHT22;29781;49.480;8.512;2022-08-04T03:18:40;24.80;99.90
44117;DHT22;29781;49.480;8.512;2022-08-04T03:43:32;24.80;99.90
44117;DHT22;29781;49.480;8.512;2022-08-04T04:00:17;25.00;99.90
44117;DHT22;29781;49.480;8.512;2022-08-04T04:13:54;24.50;99.90
44117;DHT22;29781;49.480;8.512;2022-08-04T04:22:04;23.90;99.90
44117;DHT22;29781;49.480;8.512;2022-08-04T04:30:22;24.20;99.90
44117;DHT22;29781;49.480;8.512;2022-08-04T04:41:28;24.70;99.90
44117;DHT22;29781;49.480;8.512;2022-08-04T04:44:21;24.80;99.90
44117;DHT22;29781;49.480;8.512;2022-08-04T04:49:36;24.40;99.90
44117;DHT22;29781;49.480;8.512;2022-08-04T04:52:23;23.70;99.90
44117;DHT22;29781;49.480;8.512;2022-08-04T04:57:44;23.70;99.90
44117;DHT22;29781;49.480;8.512;2022-08-04T05:00:11;23.70;99.90
44117;DHT22;29781;49.480;8.512;2022-08-04T05:13:41;24.00;99.90
44117;DHT22;29781;49.480;8.512;2022-08-04T05:16:46;24.20;99.90
44117;DHT22;29781;49.480;8.512;2022-08-04T05:24:11;24.70;99.90
44117;DHT22;29781;49.480;8.512;2022-08-04T05:26:46;24.60;99.90
44117;DHT22;29781;49.480;8.512;2022-08-04T05:29:36;24.40;99.90
44117;DHT22;29781;49.480;8.512;2022-08-04T05:32:11;24.30;99.90
44117;DHT22;29781;49.480;8.512;2022-08-04T05:34:44;24.20;99.90
44117;DHT22;29781;49.480;8.512;2022-08-04T05:37:18;24.20;99.90
44117;DHT22;29781;49.480;8.512;2022-08-04T05:39:48;24.10;99.90
44117;DHT22;29781;49.480;8.512;2022-08-04T05:42:18;24.20;99.90
44117;DHT22;29781;49.480;8.512;2022-08-04T05:44:44;24.30;99.90
44117;DHT22;29781;49.480;8.512;2022-08-04T05:47:11;24.50;99.90
44117;DHT22;29781;49.480;8.512;2022-08-04T05:49:38;24.50;99.90
44117;DHT22;29781;49.480;8.512;2022-08-04T05:52:06;24.50;99.90
44117;DHT22;29781;49.480;8.512;2022-08-04T05:54:33;24.50;99.90
44117;DHT22;29781;49.480;8.512;2022-08-04T05:57:02;24.50;99.90
44117;DHT22;29781;49.480;8.512;2022-08-04T05:59:30;24.40;99.90
44117;DHT22;29781;49.480;8.512;2022-08-04T06:01:58;24.40;99.90
44117;DHT22;29781;49.480;8.512;2022-08-04T06:04:39;24.50;99.90
44117;DHT22;29781;49.480;8.512;2022-08-04T06:07:06;24.70;99.90
44117;DHT22;29781;49.480;8.512;2022-08-04T06:09:32;25.20;99.90
44117;DHT22;29781;49.480;8.512;2022-08-04T06:12:05;25.60;99.50
44117;DHT22;29781;49.480;8.512;2022-08-04T06:14:37;26.00;99.20
44117;DHT22;29781;49.480;8.512;2022-08-04T06:17:05;26.20;98.70
44117;DHT22;29781;49.480;8.512;2022-08-04T06:19:34;26.20;98.40
44117;DHT22;29781;49.480;8.512;2022-08-04T06:22:03;26.20;98.00
44117;DHT22;29781;49.480;8.512;2022-08-04T06:24:30;26.10;98.00
44117;DHT22;29781;49.480;8.512;2022-08-04T06:26:57;26.20;98.30
44117;DHT22;29781;49.480;8.512;2022-08-04T06:29:26;26.40;98.00
44117;DHT22;29781;49.480;8.512;2022-08-04T06:32:01;26.50;98.10
44117;DHT22;29781;49.480;8.512;2022-08-04T06:34:37;26.70;98.20
44117;DHT22;29781;49.480;8.512;2022-08-04T06:37:05;26.70;97.90
44117;DHT22;29781;49.480;8.512;2022-08-04T06:39:31;26.70;97.40
44117;DHT22;29781;49.480;8.512;2022-08-04T06:41:58;26.80;97.50
44117;DHT22;29781;49.480;8.512;2022-08-04T06:44:25;26.90;97.30
44117;DHT22;29781;49.480;8.512;2022-08-04T06:46:52;27.00;97.10
44117;DHT22;29781;49.480;8.512;2022-08-04T06:49:18;27.10;96.20
44117;DHT22;29781;49.480;8.512;2022-08-04T06:51:46;27.10;96.40
44117;DHT22;29781;49.480;8.512;2022-08-04T06:54:12;27.20;96.00
44117;DHT22;29781;49.480;8.512;2022-08-04T06:56:38;27.20;96.00
44117;DHT22;29781;49.480;8.512;2022-08-04T06:59:05;27.30;96.00
44117;DHT22;29781;49.480;8.512;2022-08-04T07:01:34;27.10;95.60
44117;DHT22;29781;49.480;8.512;2022-08-04T07:04:01;27.20;95.90
44117;DHT22;29781;49.480;8.512;2022-08-04T07:06:27;27.30;96.00
44117;DHT22;29781;49.480;8.512;2022-08-04T07:08:53;27.40;95.50
44117;DHT22;29781;49.480;8.512;2022-08-04T07:11:21;27.40;95.90
44117;DHT22;29781;49.480;8.512;2022-08-04T07:13:48;27.50;95.80
44117;DHT22;29781;49.480;8.512;2022-08-04T07:16:15;27.60;95.30
44117;DHT22;29781;49.480;8.512;2022-08-04T07:18:41;27.60;94.80
44117;DHT22;29781;49.480;8.512;2022-08-04T07:21:07;27.70;94.70
44117;DHT22;29781;49.480;8.512;2022-08-04T07:23:33;27.70;94.60
44117;DHT22;29781;49.480;8.512;2022-08-04T07:25:59;27.70;94.40
44117;DHT22;29781;49.480;8.512;2022-08-04T07:28:27;27.70;94.60
44117;DHT22;29781;49.480;8.512;2022-08-04T07:30:55;27.80;93.80
44117;DHT22;29781;49.480;8.512;2022-08-04T07:33:22;27.80;93.70
44117;DHT22;29781;49.480;8.512;2022-08-04T07:35:52;28.00;93.40
44117;DHT22;29781;49.480;8.512;2022-08-04T07:38:18;28.00;93.00
44117;DHT22;29781;49.480;8.512;2022-08-04T07:40:44;28.00;92.80
44117;DHT22;29781;49.480;8.512;2022-08-04T07:43:10;28.10;93.10
44117;DHT22;29781;49.480;8.512;2022-08-04T07:45:36;28.40;92.60
44117;DHT22;29781;49.480;8.512;2022-08-04T07:48:02;28.60;92.00
44117;DHT22;29781;49.480;8.512;2022-08-04T07:50:30;28.80;91.80
44117;DHT22;29781;49.480;8.512;2022-08-04T07:52:56;29.10;90.60
44117;DHT22;29781;49.480;8.512;2022-08-04T07:55:22;29.30;90.40
44117;DHT22;29781;49.480;8.512;2022-08-04T07:57:49;29.40;89.80
44117;DHT22;29781;49.480;8.512;2022-08-04T08:00:14;29.40;90.10
44117;DHT22;29781;49.480;8.512;2022-08-04T08:02:41;29.40;89.30
44117;DHT22;29781;49.480;8.512;2022-08-04T08:05:11;29.40;89.10
44117;DHT22;29781;49.480;8.512;2022-08-04T08:07:37;29.40;89.80
44117;DHT22;29781;49.480;8.512;2022-08-04T08:10:03;29.30;90.00
44117;DHT22;29781;49.480;8.512;2022-08-04T08:12:30;29.30;90.20
44117;DHT22;29781;49.480;8.512;2022-08-04T08:14:56;29.30;89.70
44117;DHT22;29781;49.480;8.512;2022-08-04T08:17:22;29.40;89.20
44117;DHT22;29781;49.480;8.512;2022-08-04T08:19:48;29.60;88.30
44117;DHT22;29781;49.480;8.512;2022-08-04T08:22:14;29.50;88.60
44117;DHT22;29781;49.480;8.512;2022-08-04T08:24:39;29.50;88.80
44117;DHT22;29781;49.480;8.512;2022-08-04T08:27:05;29.50;88.00
44117;DHT22;29781;49.480;8.512;2022-08-04T08:29:33;29.60;87.80
44117;DHT22;29781;49.480;8.512;2022-08-04T08:32:02;29.90;86.20
44117;DHT22;29781;49.480;8.512;2022-08-04T08:34:29;30.00;86.50
44117;DHT22;29781;49.480;8.512;2022-08-04T08:40:06;30.10;85.70
44117;DHT22;29781;49.480;8.512;2022-08-04T08:45:52;31.00;83.70
44117;DHT22;29781;49.480;8.512;2022-08-04T08:48:43;31.90;82.60
44117;DHT22;29781;49.480;8.512;2022-08-04T08:51:39;32.70;80.80
44117;DHT22;29781;49.480;8.512;2022-08-04T08:54:23;32.40;80.10
44117;DHT22;29781;49.480;8.512;2022-08-04T09:02:27;31.20;82.90
44117;DHT22;29781;49.480;8.512;2022-08-04T09:11:08;30.80;84.10
44117;DHT22;29781;49.480;8.512;2022-08-04T09:13:54;30.80;84.00
44117;DHT22;29781;49.480;8.512;2022-08-04T09:16:37;31.00;83.70
44117;DHT22;29781;49.480;8.512;2022-08-04T09:19:35;31.00;83.10
44117;DHT22;29781;49.480;8.512;2022-08-04T09:22:27;30.90;83.60
44117;DHT22;29781;49.480;8.512;2022-08-04T09:25:27;30.90;82.80
44117;DHT22;29781;49.480;8.512;2022-08-04T09:27:54;31.00;83.60
44117;DHT22;29781;49.480;8.512;2022-08-04T09:30:44;31.00;83.10
44117;DHT22;29781;49.480;8.512;2022-08-04T09:33:30;31.10;82.50
44117;DHT22;29781;49.480;8.512;2022-08-04T09:36:06;31.10;83.30
44117;DHT22;29781;49.480;8.512;2022-08-04T09:47:19;31.60;82.20
44117;DHT22;29781;49.480;8.512;2022-08-04T09:49:52;31.70;82.10
44117;DHT22;29781;49.480;8.512;2022-08-04T09:52:27;31.90;82.10
44117;DHT22;29781;49.480;8.512;2022-08-04T09:58:27;32.10;79.40
44117;DHT22;29781;49.480;8.512;2022-08-04T10:01:07;32.40;79.10
44117;DHT22;29781;49.480;8.512;2022-08-04T10:03:48;32.40;78.10
44117;DHT22;29781;49.480;8.512;2022-08-04T10:14:36;32.10;79.30
44117;DHT22;29781;49.480;8.512;2022-08-04T10:17:18;32.10;78.40
44117;DHT22;29781;49.480;8.512;2022-08-04T10:19:52;32.10;78.00
44117;DHT22;29781;49.480;8.512;2022-08-04T10:22:25;32.10;78.60
44117;DHT22;29781;49.480;8.512;2022-08-04T10:27:47;32.00;78.40
44117;DHT22;29781;49.480;8.512;2022-08-04T10:30:16;32.20;77.30
44117;DHT22;29781;49.480;8.512;2022-08-04T10:35:31;32.30;77.40
44117;DHT22;29781;49.480;8.512;2022-08-04T10:41:12;32.40;77.60
44117;DHT22;29781;49.480;8.512;2022-08-04T10:46:32;32.40;76.80
44117;DHT22;29781;49.480;8.512;2022-08-04T10:49:08;32.40;77.90
44117;DHT22;29781;49.480;8.512;2022-08-04T10:51:54;32.40;77.20
44117;DHT22;29781;49.480;8.512;2022-08-04T10:54:50;32.50;77.90
44117;DHT22;29781;49.480;8.512;2022-08-04T11:00:09;32.60;77.40
44117;DHT22;29781;49.480;8.512;2022-08-04T11:08:15;32.70;75.60
44117;DHT22;29781;49.480;8.512;2022-08-04T11:14:06;32.70;73.50
44117;DHT22;29781;49.480;8.512;2022-08-04T11:16:52;32.80;74.80
44117;DHT22;29781;49.480;8.512;2022-08-04T11:22:35;33.10;72.60
44117;DHT22;29781;49.480;8.512;2022-08-04T11:25:15;33.30;71.70
44117;DHT22;29781;49.480;8.512;2022-08-04T11:30:29;33.90;70.50
44117;DHT22;29781;49.480;8.512;2022-08-04T11:41:33;34.30;68.10
44117;DHT22;29781;49.480;8.512;2022-08-04T11:44:03;34.30;67.00
44117;DHT22;29781;49.480;8.512;2022-08-04T11:46:46;34.40;64.70
44117;DHT22;29781;49.480;8.512;2022-08-04T11:51:49;34.20;65.30
44117;DHT22;29781;49.480;8.512;2022-08-04T11:54:17;34.10;65.80
44117;DHT22;29781;49.480;8.512;2022-08-04T11:56:43;34.20;63.30
44117;DHT22;29781;49.480;8.512;2022-08-04T11:59:09;34.30;62.60
44117;DHT22;29781;49.480;8.512;2022-08-04T12:04:17;34.30;63.70
44117;DHT22;29781;49.480;8.512;2022-08-04T12:09:55;34.30;62.60
44117;DHT22;29781;49.480;8.512;2022-08-04T12:12:45;34.30;63.40
44117;DHT22;29781;49.480;8.512;2022-08-04T12:17:59;34.50;61.90
44117;DHT22;29781;49.480;8.512;2022-08-04T12:20:29;34.50;61.50
44117;DHT22;29781;49.480;8.512;2022-08-04T12:22:56;34.50;61.00
44117;DHT22;29781;49.480;8.512;2022-08-04T12:25:35;34.60;61.20
44117;DHT22;29781;49.480;8.512;2022-08-04T12:28:12;34.80;61.50
44117;DHT22;29781;49.480;8.512;2022-08-04T12:30:45;34.90;61.30
44117;DHT22;29781;49.480;8.512;2022-08-04T12:33:33;34.90;61.70
44117;DHT22;29781;49.480;8.512;2022-08-04T12:38:34;35.10;61.00
44117;DHT22;29781;49.480;8.512;2022-08-04T12:41:01;35.10;60.60
44117;DHT22;29781;49.480;8.512;2022-08-04T12:46:04;35.00;60.70
44117;DHT22;29781;49.480;8.512;2022-08-04T12:48:32;34.90;60.80
44117;DHT22;29781;49.480;8.512;2022-08-04T12:50:58;34.90;62.40
44117;DHT22;29781;49.480;8.512;2022-08-04T12:53:36;35.20;61.00
44117;DHT22;29781;49.480;8.512;2022-08-04T12:56:04;35.20;60.60
44117;DHT22;29781;49.480;8.512;2022-08-04T12:58:39;35.10;61.10
44117;DHT22;29781;49.480;8.512;2022-08-04T13:01:16;35.20;61.40
44117;DHT22;29781;49.480;8.512;2022-08-04T13:03:48;35.20;61.70
44117;DHT22;29781;49.480;8.512;2022-08-04T13:06:25;35.40;61.60
44117;DHT22;29781;49.480;8.512;2022-08-04T13:08:52;35.40;61.00
44117;DHT22;29781;49.480;8.512;2022-08-04T13:11:20;35.40;61.30
44117;DHT22;29781;49.480;8.512;2022-08-04T13:13:53;35.40;61.00
44117;DHT22;29781;49.480;8.512;2022-08-04T13:16:31;35.50;60.80
44117;DHT22;29781;49.480;8.512;2022-08-04T13:18:57;35.60;60.70
44117;DHT22;29781;49.480;8.512;2022-08-04T13:21:25;35.70;61.30
44117;DHT22;29781;49.480;8.512;2022-08-04T13:23:55;35.80;60.10
44117;DHT22;29781;49.480;8.512;2022-08-04T13:26:23;35.70;61.10
44117;DHT22;29781;49.480;8.512;2022-08-04T13:28:52;35.60;61.40
44117;DHT22;29781;49.480;8.512;2022-08-04T13:31:23;35.60;61.40
44117;DHT22;29781;49.480;8.512;2022-08-04T13:33:53;35.50;61.30
44117;DHT22;29781;49.480;8.512;2022-08-04T13:36:29;35.50;61.70
44117;DHT22;29781;49.480;8.512;2022-08-04T13:39:04;35.60;61.20
44117;DHT22;29781;49.480;8.512;2022-08-04T13:41:34;35.60;61.20
44117;DHT22;29781;49.480;8.512;2022-08-04T13:44:02;35.60;61.10
44117;DHT22;29781;49.480;8.512;2022-08-04T13:46:31;35.60;61.40
44117;DHT22;29781;49.480;8.512;2022-08-04T13:49:00;35.60;61.30
44117;DHT22;29781;49.480;8.512;2022-08-04T13:51:27;35.60;61.40
44117;DHT22;29781;49.480;8.512;2022-08-04T13:53:55;35.60;61.20
44117;DHT22;29781;49.480;8.512;2022-08-04T13:56:22;35.60;61.10
44117;DHT22;29781;49.480;8.512;2022-08-04T13:58:54;35.60;61.30
44117;DHT22;29781;49.480;8.512;2022-08-04T14:01:27;35.70;61.20
44117;DHT22;29781;49.480;8.512;2022-08-04T14:06:35;35.80;60.90
44117;DHT22;29781;49.480;8.512;2022-08-04T14:09:13;35.70;60.60
44117;DHT22;29781;49.480;8.512;2022-08-04T14:11:48;35.60;60.60
44117;DHT22;29781;49.480;8.512;2022-08-04T14:14:14;35.60;60.80
44117;DHT22;29781;49.480;8.512;2022-08-04T14:17:02;35.60;60.60
44117;DHT22;29781;49.480;8.512;2022-08-04T14:19:46;35.60;60.60
44117;DHT22;29781;49.480;8.512;2022-08-04T14:22:34;35.60;60.40
44117;DHT22;29781;49.480;8.512;2022-08-04T14:30:34;35.90;60.10
44117;DHT22;29781;49.480;8.512;2022-08-04T14:33:06;35.90;59.90
44117;DHT22;29781;49.480;8.512;2022-08-04T14:35:33;35.90;59.50
44117;DHT22;29781;49.480;8.512;2022-08-04T14:38:02;35.90;59.80
44117;DHT22;29781;49.480;8.512;2022-08-04T14:40:31;35.80;59.40
44117;DHT22;29781;49.480;8.512;2022-08-04T14:42:57;35.80;60.10
44117;DHT22;29781;49.480;8.512;2022-08-04T14:48:11;35.90;58.90
44117;DHT22;29781;49.480;8.512;2022-08-04T14:50:41;35.80;59.40
44117;DHT22;29781;49.480;8.512;2022-08-04T14:53:17;35.80;59.20
44117;DHT22;29781;49.480;8.512;2022-08-04T14:55:47;35.70;59.70
44117;DHT22;29781;49.480;8.512;2022-08-04T14:58:26;35.70;59.10
44117;DHT22;29781;49.480;8.512;2022-08-04T15:00:54;35.70;59.80
44117;DHT22;29781;49.480;8.512;2022-08-04T15:03:21;35.80;59.30
44117;DHT22;29781;49.480;8.512;2022-08-04T15:05:47;35.80;59.50
44117;DHT22;29781;49.480;8.512;2022-08-04T15:08:14;35.80;58.90
44117;DHT22;29781;49.480;8.512;2022-08-04T15:10:40;35.90;59.20
44117;DHT22;29781;49.480;8.512;2022-08-04T15:13:07;35.90;59.70
44117;DHT22;29781;49.480;8.512;2022-08-04T15:15:33;35.90;59.90
44117;DHT22;29781;49.480;8.512;2022-08-04T15:17:59;35.90;60.10
44117;DHT22;29781;49.480;8.512;2022-08-04T15:20:25;35.90;59.10
44117;DHT22;29781;49.480;8.512;2022-08-04T15:22:51;36.00;59.00
44117;DHT22;29781;49.480;8.512;2022-08-04T15:25:17;36.00;59.50
44117;DHT22;29781;49.480;8.512;2022-08-04T15:27:46;36.00;58.90
44117;DHT22;29781;49.480;8.512;2022-08-04T15:30:13;36.00;59.10
44117;DHT22;29781;49.480;8.512;2022-08-04T15:32:56;36.00;58.80
44117;DHT22;29781;49.480;8.512;2022-08-04T15:35:25;36.00;59.30
44117;DHT22;29781;49.480;8.512;2022-08-04T15:38:02;36.00;58.10
44117;DHT22;29781;49.480;8.512;2022-08-04T15:45:56;36.10;57.70
44117;DHT22;29781;49.480;8.512;2022-08-04T15:48:25;36.20;56.80
44117;DHT22;29781;49.480;8.512;2022-08-04T15:53:20;36.10;56.50
44117;DHT22;29781;49.480;8.512;2022-08-04T15:55:45;36.10;55.90
44117;DHT22;29781;49.480;8.512;2022-08-04T15:58:13;36.20;56.40
44117;DHT22;29781;49.480;8.512;2022-08-04T16:03:41;36.20;55.90
44117;DHT22;29781;49.480;8.512;2022-08-04T16:14:06;36.30;56.60
44117;DHT22;29781;49.480;8.512;2022-08-04T16:19:04;36.30;55.50
44117;DHT22;29781;49.480;8.512;2022-08-04T16:21:33;36.30;56.90
44117;DHT22;29781;49.480;8.512;2022-08-04T16:24:18;36.30;56.60
44117;DHT22;29781;49.480;8.512;2022-08-04T16:26:46;36.30;55.80
44117;DHT22;29781;49.480;8.512;2022-08-04T16:37:17;36.20;55.40
44117;DHT22;29781;49.480;8.512;2022-08-04T16:39:43;36.30;56.10
44117;DHT22;29781;49.480;8.512;2022-08-04T16:42:28;36.20;55.40
44117;DHT22;29781;49.480;8.512;2022-08-04T16:48:02;36.20;55.40
44117;DHT22;29781;49.480;8.512;2022-08-04T16:50:33;36.20;55.70
44117;DHT22;29781;49.480;8.512;2022-08-04T16:53:00;36.20;55.20
44117;DHT22;29781;49.480;8.512;2022-08-04T16:55:34;36.30;55.70
44117;DHT22;29781;49.480;8.512;2022-08-04T16:58:00;36.20;55.80
44117;DHT22;29781;49.480;8.512;2022-08-04T17:00:36;36.20;54.70
44117;DHT22;29781;49.480;8.512;2022-08-04T17:03:08;36.20;54.70
44117;DHT22;29781;49.480;8.512;2022-08-04T17:05:34;36.20;55.70
44117;DHT22;29781;49.480;8.512;2022-08-04T17:08:01;36.10;55.60
44117;DHT22;29781;49.480;8.512;2022-08-04T17:10:41;36.20;55.30
44117;DHT22;29781;49.480;8.512;2022-08-04T17:15:49;36.20;55.20
44117;DHT22;29781;49.480;8.512;2022-08-04T17:18:18;36.10;55.30
44117;DHT22;29781;49.480;8.512;2022-08-04T17:20:44;36.10;55.10
44117;DHT22;29781;49.480;8.512;2022-08-04T17:23:31;36.20;55.20
44117;DHT22;29781;49.480;8.512;2022-08-04T17:26:00;36.20;55.40
44117;DHT22;29781;49.480;8.512;2022-08-04T17:28:26;36.20;55.90
44117;DHT22;29781;49.480;8.512;2022-08-04T17:30:54;36.20;56.00
44117;DHT22;29781;49.480;8.512;2022-08-04T17:33:20;36.20;55.50
44117;DHT22;29781;49.480;8.512;2022-08-04T17:35:47;36.20;56.10
44117;DHT22;29781;49.480;8.512;2022-08-04T17:38:13;36.20;55.40
44117;DHT22;29781;49.480;8.512;2022-08-04T17:41:01;36.10;55.60
44117;DHT22;29781;49.480;8.512;2022-08-04T17:43:47;36.10;55.80
44117;DHT22;29781;49.480;8.512;2022-08-04T17:49:06;36.00;56.40
44117;DHT22;29781;49.480;8.512;2022-08-04T17:51:46;35.90;56.90
44117;DHT22;29781;49.480;8.512;2022-08-04T17:54:27;35.80;56.00
44117;DHT22;29781;49.480;8.512;2022-08-04T17:56:59;35.70;56.00
44117;DHT22;29781;49.480;8.512;2022-08-04T17:59:39;35.70;56.50
44117;DHT22;29781;49.480;8.512;2022-08-04T18:02:05;35.60;56.70
44117;DHT22;29781;49.480;8.512;2022-08-04T18:04:32;35.50;57.60
44117;DHT22;29781;49.480;8.512;2022-08-04T18:09:55;35.40;57.80
44117;DHT22;29781;49.480;8.512;2022-08-04T18:12:25;35.30;57.80
44117;DHT22;29781;49.480;8.512;2022-08-04T18:14:53;35.30;58.10
44117;DHT22;29781;49.480;8.512;2022-08-04T18:17:49;35.20;57.80
44117;DHT22;29781;49.480;8.512;2022-08-04T18:20:16;35.20;58.20
44117;DHT22;29781;49.480;8.512;2022-08-04T18:22:45;35.20;58.50
44117;DHT22;29781;49.480;8.512;2022-08-04T18:25:13;35.10;58.90
44117;DHT22;29781;49.480;8.512;2022-08-04T18:27:52;35.00;59.00
44117;DHT22;29781;49.480;8.512;2022-08-04T18:30:18;35.00;59.40
44117;DHT22;29781;49.480;8.512;2022-08-04T18:32:45;35.00;59.20
44117;DHT22;29781;49.480;8.512;2022-08-04T18:35:10;35.00;59.80
44117;DHT22;29781;49.480;8.512;2022-08-04T18:37:37;34.90;59.60
44117;DHT22;29781;49.480;8.512;2022-08-04T18:40:05;34.80;59.60
44117;DHT22;29781;49.480;8.512;2022-08-04T18:42:31;34.80;59.80
44117;DHT22;29781;49.480;8.512;2022-08-04T18:44:56;34.70;60.30
44117;DHT22;29781;49.480;8.512;2022-08-04T18:47:23;34.70;61.00
44117;DHT22;29781;49.480;8.512;2022-08-04T18:49:52;34.60;61.50
44117;DHT22;29781;49.480;8.512;2022-08-04T18:52:18;34.50;62.00
44117;DHT22;29781;49.480;8.512;2022-08-04T18:54:44;34.50;62.30
44117;DHT22;29781;49.480;8.512;2022-08-04T18:57:10;34.50;62.40
44117;DHT22;29781;49.480;8.512;2022-08-04T18:59:35;34.40;62.60
44117;DHT22;29781;49.480;8.512;2022-08-04T19:02:01;34.30;63.10
44117;DHT22;29781;49.480;8.512;2022-08-04T19:04:27;34.30;63.40
44117;DHT22;29781;49.480;8.512;2022-08-04T19:06:53;34.10;63.70
44117;DHT22;29781;49.480;8.512;2022-08-04T19:09:19;34.10;64.20
44117;DHT22;29781;49.480;8.512;2022-08-04T19:11:45;33.90;64.00
44117;DHT22;29781;49.480;8.512;2022-08-04T19:14:11;33.70;64.60
44117;DHT22;29781;49.480;8.512;2022-08-04T19:16:37;33.60;64.70
44117;DHT22;29781;49.480;8.512;2022-08-04T19:19:05;33.60;64.90
44117;DHT22;29781;49.480;8.512;2022-08-04T19:21:31;33.60;64.70
44117;DHT22;29781;49.480;8.512;2022-08-04T19:23:57;33.70;64.80
44117;DHT22;29781;49.480;8.512;2022-08-04T19:26:23;33.70;65.00
44117;DHT22;29781;49.480;8.512;2022-08-04T19:28:50;33.60;65.10
44117;DHT22;29781;49.480;8.512;2022-08-04T19:31:16;33.50;64.90
44117;DHT22;29781;49.480;8.512;2022-08-04T19:33:43;33.50;65.60
44117;DHT22;29781;49.480;8.512;2022-08-04T19:36:09;33.50;65.90
44117;DHT22;29781;49.480;8.512;2022-08-04T19:38:36;33.50;65.50
44117;DHT22;29781;49.480;8.512;2022-08-04T19:41:02;33.40;66.50
44117;DHT22;29781;49.480;8.512;2022-08-04T19:43:32;33.50;66.40
44117;DHT22;29781;49.480;8.512;2022-08-04T19:45:58;33.50;65.90
44117;DHT22;29781;49.480;8.512;2022-08-04T19:48:24;33.50;65.80
44117;DHT22;29781;49.480;8.512;2022-08-04T19:50:50;33.40;65.80
44117;DHT22;29781;49.480;8.512;2022-08-04T19:53:16;33.50;65.60
44117;DHT22;29781;49.480;8.512;2022-08-04T19:55:43;33.40;65.90
44117;DHT22;29781;49.480;8.512;2022-08-04T19:58:09;33.20;64.30
44117;DHT22;29781;49.480;8.512;2022-08-04T20:00:37;32.90;66.90
44117;DHT22;29781;49.480;8.512;2022-08-04T20:03:06;32.60;68.60
44117;DHT22;29781;49.480;8.512;2022-08-04T20:05:32;32.20;67.50
44117;DHT22;29781;49.480;8.512;2022-08-04T20:07:58;32.10;68.50
44117;DHT22;29781;49.480;8.512;2022-08-04T20:10:23;32.10;69.10
44117;DHT22;29781;49.480;8.512;2022-08-04T20:12:49;32.10;69.20
44117;DHT22;29781;49.480;8.512;2022-08-04T20:15:15;32.20;69.20
44117;DHT22;29781;49.480;8.512;2022-08-04T20:17:41;32.30;66.00
44117;DHT22;29781;49.480;8.512;2022-08-04T20:20:07;32.30;63.10
44117;DHT22;29781;49.480;8.512;2022-08-04T20:22:33;32.40;63.40
44117;DHT22;29781;49.480;8.512;2022-08-04T20:24:59;32.40;64.10
44117;DHT22;29781;49.480;8.512;2022-08-04T20:27:25;32.50;66.00
44117;DHT22;29781;49.480;8.512;2022-08-04T20:29:51;32.50;67.00
44117;DHT22;29781;49.480;8.512;2022-08-04T20:32:22;32.70;66.60
44117;DHT22;29781;49.480;8.512;2022-08-04T20:34:53;32.70;66.40
44117;DHT22;29781;49.480;8.512;2022-08-04T20:37:20;32.80;65.70
44117;DHT22;29781;49.480;8.512;2022-08-04T20:39:51;32.80;65.70
44117;DHT22;29781;49.480;8.512;2022-08-04T20:42:17;32.80;67.00